Barry

Game-by-Game Results

 

Game Results

 

   Game date     Opposing team     Score     r-h-e  r-h-e  Inns  Overall  SSC  Pitcher of record  Attend  Time 
02/03/09   vs  Valdosta State    1-7  L     1-5-2  7-7-0  9   0-1-0  0-0-0   B. Hernandez (L 0-1)  100  2:50 
  02/05/09     NOVA SOUTHEASTERN  16-3       16-15-1  3-7-4  9   1-1-0  0-0-0   Short (W 1-0)  463  2:56 
  02/10/09   at  Saint Thomas  17-2       17-14-1  2-9-3  9   2-1-0  0-0-0   McAllister (W 1-0)  124  3:03 
  02/13/09   at  Newberry-1  8-7       8-11-5  7-11-2  (12)   3-1-0  0-0-0   Milanes (W 1-0)  4:06 
  02/13/09   at  Newberry-2  13-3       13-11-1  3-5-1  7   4-1-0  0-0-0   Witkowski (W 1-0)  345  2:20 
  02/14/09   at  Newberry  6-5       6-8-0  5-12-1  9   5-1-0  0-0-0   Short (W 2-0)  177  3:04 
  02/15/09   vs  Belmont Abbey  4-2       4-7-0  2-12-2  9   6-1-0  0-0-0   McAllister (W 2-0)  151  2:02 
  02/20/09   at  Flagler  5-3       5-10-3  3-4-0  9   7-1-0  0-0-0   B. Hernandez (W 1-1)  143  2:48 
  02/21/09   at  Flagler-1  10-4       10-11-1  4-8-2  9   8-1-0  0-0-0   Short (W 3-0)  127  2:56 
  02/21/09   at  Flagler-2    3-4  L     3-6-2  4-3-0  7   8-2-0  0-0-0   Mullins (L 0-1)  2:37 
  02/25/09   at  Palm Beach Atlantic  12-6       12-11-6  6-5-4  9   9-2-0  0-0-0   McAllister (W 3-0)  167  3:08 
  02/28/09     CONCORDIA  16-4       16-14-1  4-10-0  9   10-2-0  0-0-0   B. Hernandez (W 2-1)  204  2:56 
  03/01/09     CONCORDIA  16-6       16-15-1  6-12-2  9   11-2-0  0-0-0   Short (W 4-0)  212  2:50 
  03/04/09   at  Saint Thomas  8-5       8-12-3  5-12-1  9   12-2-0  0-0-0   Mullins (W 1-1)  103  3:25 
03/06/09     LYNN  4-0       4-9-1  0-6-2  9   13-2-0  1-0-0   McAllister (W 4-0)  227  2:25 
03/07/09     LYNN-1  19-2       19-17-1  2-8-0  9   14-2-0  2-0-0   Short (W 5-0)  3:11 
03/07/09     #13 LYNN-2  8-3       8-9-1  3-3-1  7   15-2-0  3-0-0   Sexton (W 1-0)  311  2:01 
  03/10/09     SAINT THOMAS  3-1       3-7-1  1-6-3  9   16-2-0  3-0-0   Milanes (W 2-0)  176  2:54 
  03/11/09     FELICIAN  16-4       16-17-1  4-11-3  9   17-2-0  3-0-0   Mullins (W 2-1)  199  2:55 
  03/13/09     PACE  12-6       12-10-2  6-11-6  9   18-2-0  3-0-0   B. Hernandez (W 3-1)  204  2:50 
  03/14/09     PACE-1  19-8       19-16-5  8-11-1  7   19-2-0  3-0-0   McAllister (W 5-0)  2:03 
  03/14/09     PACE-2  2-1       2-7-0  1-5-0  7   20-2-0  3-0-0   Short (W 6-0)  196  1:53 
  03/15/09     PACE  19-10       19-20-3  10-10-1  9   21-2-0  3-0-0   Koubek (W 1-0)  237  3:35 
  03/16/09     MERRIMACK  12-1       12-16-1  1-6-2  9   22-2-0  3-0-0   Mullins (W 3-1)  176  2:42 
03/20/09     FLORIDA TECH  9-3       9-8-1  3-5-3  9   23-2-0  4-0-0   Sexton (W 2-0)  213  2:40 
03/21/09     FLORIDA TECH-1    4-6  L     4-10-0  6-10-0  9   23-3-0  4-1-0   Sexton (L 2-1)  264  8:00 
03/22/09     FLORIDA TECH  4-2       4-9-2  2-8-2  9   24-3-0  5-1-0   Short (W 7-0)  343  2:43 
  03/24/09     MERCY  16-0       16-18-1  0-2-3  9   25-3-0  5-1-0   Witkowski (W 2-0)  234  2:40 
03/27/09   at  Eckerd  10-2       10-12-2  2-7-0  9   26-3-0  6-1-0   B. Hernandez (W 4-1)  211  2:51 
03/28/09   at  Eckerd-1  13-9       13-21-2  9-14-3  (11)   27-3-0  7-1-0   Sexton (W 3-1)  3:36 
03/28/09   at  Eckerd-2  13-0       13-14-0  0-4-3  7   28-3-0  8-1-0   Short (W 8-0)  309  2:10 
  03/31/09     PALM BEACH ATLANTIC  7-6       7-14-0  6-12-1  9   29-3-0  8-1-0   Witkowski (W 3-0)  217  3:19 
  04/01/09   at  #7 Miami    10-15  L     10-11-1  15-13-1  9   29-4-0  8-1-0   Santana (L 0-1)  1253  3:08 
04/03/09     SAINT LEO  14-6       14-14-2  6-12-1  9   30-4-0  9-1-0   B. Hernandez (W 5-1)  162  2:38 
04/04/09     SAINT LEO-1  11-1       11-15-2  1-5-3  9   31-4-0  10-1-0   Short (W 9-0)  2:41 
04/04/09     SAINT LEO-2  7-1       7-13-1  1-9-2  7   32-4-0  11-1-0   McAllister (W 6-0)  347  1:45 
  04/07/09   at  Florida Tech  30-8       30-27-2  8-11-2  9   33-4-0  11-1-0   Witkowski (W 4-0)  30  3:45 
04/09/09   at  #1 Florida Southern    7-9  L     7-10-0  9-13-0  9   33-5-0  11-2-0   B. Hernandez (L 5-2)  172  3:11 
04/10/09   at  #1 Florida Southern-1    7-8  L     7-11-0  8-14-0  9   33-6-0  11-3-0   Short (L 9-1)  152  2:58 
04/10/09   at  #1 Florida Southern-2  15-2       15-14-2  2-6-3  7   34-6-0  12-3-0   McAllister (W 7-0)  2:30 
  04/15/09     SAINT THOMAS  18-3       18-18-0  3-10-0  9   35-6-0  12-3-0   Koubek (W 2-0)  297  3:17 
04/17/09   at  Nova Southeastern  10-6       10-12-0  6-10-1  9   36-6-0  13-3-0   McAllister (W 8-0)  410  2:58 
04/18/09   at  Nova Southeastern-1  8-2       8-12-1  2-5-3  9   37-6-0  14-3-0   Short (W 10-1)  2:41 
04/18/09   at  Nova Southeastern-2  10-8       10-10-0  8-14-1  7   38-6-0  15-3-0   Koubek (W 3-0)  386  2:42 
  04/21/09     ROLLINS  16-0       16-17-1  0-8-1  9   39-6-0  15-3-0   Witkowski (W 5-0)  187  2:44 
04/24/09     #15 TAMPA  7-5       7-11-1  5-11-0  9   40-6-0  16-3-0   McAllister (W 9-0)  476  2:45 
04/25/09     #15 TAMPA-1  6-3       6-13-1  3-6-0  9   41-6-0  17-3-0   Short (W 11-1)  2:43 
04/25/09     #15 TAMPA-2    1-7  L     1-3-0  7-9-0  7   41-7-0  17-4-0   Koubek (L 3-1)  603  1:50 
  04/28/09   at  Palm Beach Atlantic  6-5       6-10-0  5-11-1  9   42-7-0  17-4-0   Holmes (W 1-0)  278  3:03 
  04/29/09   at  Saint Thomas  15-4       15-21-0  4-7-3  9   43-7-0  17-4-0   Mullins (W 4-1)  194  3:03 
05/01/09   at  Rollins    7-10  L     7-7-2  10-12-4  9   43-8-0  17-5-0   Short (L 11-2)  191  2:57 
05/02/09   at  Rollins-1  21-3       21-25-2  3-8-1  9   44-8-0  18-5-0   Witkowski (W 6-0)  2:40 
05/02/09   at  Rollins-2    0-1  L     0-2-0  1-10-0  7   44-9-0  18-6-0   B. Hernandez (L 5-3)  231  1:56 
  05/14/09   vs  #19 Valdosta State    3-8  L     3-8-1  8-10-1  9   44-10-0  18-6-0   McAllister (L 9-1)  315  2:20 
  05/15/09   vs  #7 West Alabama    9-14  L     9-13-2  14-18-0  9   44-11-0  18-6-0   Short (L 11-3)  312  3:35 

() extra inning game

 

Team Game-by-Game

 


Batting (All games)

   Date     Opponent  ab  rbi  2b  3b  hr  tb  bb  ibb  sb  cs  hbp  sh  sf  gdp  po  lob    avg 
  02/03/09   vs  Valdosta State   31  27  11  .161 
  02/05/09     NOVA SOUTHEASTERN   42  16  15  13  21  27  12  10  .274 
  02/10/09   at  Saint Thomas   44  17  14  17  29  11  27  10  .291 
  02/13/09   at  Newberry   44  11  19  10  11  36  18  12  .280 
  02/13/09   at  Newberry   32  13  11  12  23  21  14  .290 
  02/14/09   at  Newberry   35  11  27  11  11  .281 
  02/15/09   vs  Belmont Abbey   29  10  27  .276 
  02/20/09   at  Flagler   34  10  15  27  11  .278 
  02/21/09   at  Flagler   35  10  11  26  27  12  .282 
  02/21/09   at  Flagler   26  11  11  18  12  14  .278 
  02/25/09   at  Palm Beach Atlantic   40  12  11  10  27  14  27  .278 
  02/28/09     CONCORDIA   37  16  14  15  28  10  27  .287 
  03/01/09     CONCORDIA   35  16  15  15  30  27  11  .297 
  03/04/09   at  Saint Thomas   38  12  14  27  13  13  .299 
03/06/09     LYNN   29  13  27  14  .299 
03/07/09     LYNN   36  19  17  19  27  15  27  11  .310 
03/07/09     LYNN   27  16  21  .311 
  03/10/09     SAINT THOMAS   31  27  11  10  .307 
  03/11/09     FELICIAN   41  16  17  14  25  10  27  12  13  .314 
  03/13/09     PACE   37  12  10  14  27  13  11  .312 
  03/14/09     PACE   34  19  16  17  37  21  11  .319 
  03/14/09     PACE   22  11  21  .319 
  03/15/09     PACE   41  19  20  18  31  13  27  12  15  .327 
  03/16/09     MERRIMACK   38  12  16  10  21  27  12  10  .332 
03/20/09     FLORIDA TECH   32  17  27  11  .329 
03/21/09     FLORIDA TECH   34  10  14  27  13  12  .327 
03/22/09     FLORIDA TECH   30  27  13  .327 
  03/24/09     MERCY   44  16  18  14  30  27  12  13  .330 
03/27/09   at  Eckerd   35  10  12  10  21  27  13  .331 
03/28/09   at  Eckerd   52  13  21  13  43  33  12  14  .334 
03/28/09   at  Eckerd   36  13  14  12  28  21  .336 
  03/31/09     PALM BEACH ATLANTIC   36  14  31  11  27  12  10  .338 
  04/01/09   at  Miami   37  10  11  10  25  10  24  10  .336 
04/03/09     SAINT LEO   36  14  14  13  27  27  .338 
04/04/09     SAINT LEO   36  11  15  18  27  12  10  .340 
04/04/09     SAINT LEO   28  13  20  21  11  .343 
  04/07/09   at  Florida Tech   50  30  27  27  41  11  27  .350 
04/09/09   at  Florida Southern   35  10  16  11  24  .349 
04/10/09   at  Florida Southern   37  11  18  24  14  13  .347 
04/10/09   at  Florida Southern   37  15  14  11  20  12  21  13  .348 
  04/15/09     SAINT THOMAS   38  18  18  17  28  13  27  13  .351 
04/17/09   at  Nova Southeastern   38  10  12  10  24  10  27  11  .351 
04/18/09   at  Nova Southeastern   38  12  23  12  27  10  .350 
04/18/09   at  Nova Southeastern   28  10  10  10  24  21  .350 
  04/21/09     ROLLINS   39  16  17  16  39  27  16  .352 
04/24/09     TAMPA   35  11  18  27  12  .351 
04/25/09     TAMPA   37  13  18  27  11  11  .351 
04/25/09     TAMPA   24  21  11  .348 
  04/28/09   at  Palm Beach Atlantic   33  10  12  27  10  .347 
  04/29/09   at  Saint Thomas   45  15  21  15  26  27  10  .350 
05/01/09   at  Rollins   37  12  24  .347 
05/02/09   at  Rollins   51  21  25  20  51  27  13  .351 
05/02/09   at  Rollins   22  18  .348 
  05/14/09   vs  Valdosta State   36  15  27  10  .345 
  05/15/09   vs  West Alabama   35  13  23  27  15  .346 
   Totals        1969  563  681  518  138  11  108  1165  316  57  24  50  12  43  44  343  1416  588  72  465  .346 




Pitching (All games)

   Date     Opponent  ip  er  bb  so  2b  3b  hr  wp  bk  hbp  dp  ibb  score  sv    era 
  02/03/09   vs  Valdosta State   9.0  1-7  7.00 
  02/05/09     NOVA SOUTHEASTERN   9.0  16-3  5.00 
  02/10/09   at  Saint Thomas   9.0  13  17-2  3.67 
  02/13/09   at  Newberry   12.0  11  12  8-7  3.69 
  02/13/09   at  Newberry   7.0  13-3  3.52 
  02/14/09   at  Newberry   9.0  12  6-5  3.76 
  02/15/09   vs  Belmont Abbey   9.0  12  4-2  3.52 
  02/20/09   at  Flagler   9.0  5-3  3.33 
  02/21/09   at  Flagler   9.0  10-4  3.18 
  02/21/09   at  Flagler   6.0  3-4  3.17 
  02/25/09   at  Palm Beach Atlantic   9.0  13  12-6  2.97 
  02/28/09     CONCORDIA   9.0  10  16-4  10  3.06 
  03/01/09     CONCORDIA   9.0  12  12  16-6  11  3.29 
  03/04/09   at  Saint Thomas   9.0  12  8-5  12  3.34 
03/06/09     LYNN   9.0  4-0  13  3.11 
03/07/09     LYNN   9.0  19-2  14  3.04 
03/07/09     LYNN   7.0  8-3  15  3.02 
  03/10/09     SAINT THOMAS   9.0  3-1  16  2.85 
  03/11/09     FELICIAN   9.0  11  10  16-4  17  2.91 
  03/13/09     PACE   9.0  11  12-6  18  2.97 
  03/14/09     PACE   7.0  11  19-8  19  3.05 
  03/14/09     PACE   7.0  2-1  20  2.98 
  03/15/09     PACE   9.0  10  10  19-10  21  2.98 
  03/16/09     MERRIMACK   9.0  12  12-1  22  2.90 
03/20/09     FLORIDA TECH   9.0  9-3  23  2.90 
03/21/09     FLORIDA TECH   9.0  10  4-6  23  3.03 
03/22/09     FLORIDA TECH   9.0  4-2  24  2.99 
  03/24/09     MERCY   9.0  11  16-0  25  2.88 
03/27/09   at  Eckerd   9.0  10-2  26  2.81 
03/28/09   at  Eckerd   11.0  14  13-9  27  3.00 
03/28/09   at  Eckerd   7.0  11  13-0  28  2.92 
  03/31/09     PALM BEACH ATLANTIC   9.0  12  7-6  29  3.02 
  04/01/09   at  Miami   8.0  13  15  14  10-15  29  3.38 
04/03/09     SAINT LEO   9.0  12  11  14-6  30  3.42 
04/04/09     SAINT LEO   9.0  11  11-1  31  3.32 
04/04/09     SAINT LEO   7.0  7-1  32  3.28 
  04/07/09   at  Florida Tech   9.0  11  13  30-8  33  3.41 
04/09/09   at  Florida Southern   8.0  13  7-9  33  3.57 
04/10/09   at  Florida Southern   8.0  14  7-8  33  3.70 
04/10/09   at  Florida Southern   7.0  15-2  34  3.65 
  04/15/09     SAINT THOMAS   9.0  10  10  18-3  35  3.64 
04/17/09   at  Nova Southeastern   9.0  10  10-6  36  3.69 
04/18/09   at  Nova Southeastern   9.0  8-2  37  3.63 
04/18/09   at  Nova Southeastern   7.0  14  10-8  38  3.75 
  04/21/09     ROLLINS   9.0  16-0  39  3.66 
04/24/09     TAMPA   9.0  11  7-5  40  3.67 
04/25/09     TAMPA   9.0  6-3  41  10  3.66 
04/25/09     TAMPA   7.0  1-7  41  10  3.75 
  04/28/09   at  Palm Beach Atlantic   9.0  11  6-5  42  11  3.77 
  04/29/09   at  Saint Thomas   9.0  15-4  43  11  3.78 
05/01/09   at  Rollins   8.0  12  10  7-10  43  11  3.87 
05/02/09   at  Rollins   9.0  21-3  44  11  3.82 
05/02/09   at  Rollins   6.0  10  0-1  44  11  3.79 
  05/14/09   vs  Valdosta State   9.0  10  3-8  44  10  11  3.85 
  05/15/09   vs  West Alabama   9.0  18  14  12  9-14  44  11  11  4.00 
   Totals        472.0  488  254  210  142  414  88  15  39  33  44  52  563-254  44  11  11  4.00 

* = SSC game